createdAt,value
2022-12-04T00:01:40.199Z,-0.68
2022-12-04T00:04:08.300Z,-0.66
2022-12-04T00:06:35.903Z,-0.66
2022-12-04T00:09:05.821Z,-0.65
2022-12-04T00:11:34.391Z,-0.66
2022-12-04T00:14:06.833Z,-0.64
2022-12-04T00:16:35.558Z,-0.65
2022-12-04T00:19:03.319Z,-0.61
2022-12-04T00:21:30.993Z,-0.63
2022-12-04T00:23:58.913Z,-0.63
2022-12-04T00:26:30.970Z,-0.58
2022-12-04T00:28:58.898Z,-0.61
2022-12-04T00:31:29.206Z,-0.60
2022-12-04T00:33:57.091Z,-0.64
2022-12-04T00:36:26.620Z,-0.68
2022-12-04T00:38:54.947Z,-0.63
2022-12-04T00:41:25.367Z,-0.64
2022-12-04T00:43:54.486Z,-0.67
2022-12-04T00:46:22.507Z,-0.63
2022-12-04T00:48:51.238Z,-0.65
2022-12-04T00:51:22.119Z,-0.63
2022-12-04T00:53:50.264Z,-0.64
2022-12-04T00:56:20.204Z,-0.63
2022-12-04T00:58:48.136Z,-0.63
2022-12-04T01:01:19.606Z,-0.63
2022-12-04T01:03:48.184Z,-0.65
2022-12-04T01:06:20.562Z,-0.64
2022-12-04T01:08:48.763Z,-0.63
2022-12-04T01:11:17.160Z,-0.62
2022-12-04T01:13:44.904Z,-0.63
2022-12-04T01:16:19.101Z,-0.63
2022-12-04T01:18:47.654Z,-0.63
2022-12-04T01:21:15.671Z,-0.66
2022-12-04T01:23:44.072Z,-0.67
2022-12-04T01:26:12.083Z,-0.63
2022-12-04T01:28:39.819Z,-0.61
2022-12-04T01:31:09.328Z,-0.59
2022-12-04T01:33:39.114Z,-0.56
2022-12-04T01:36:10.044Z,-0.55
2022-12-04T01:38:37.803Z,-0.56
2022-12-04T01:41:06.428Z,-0.57
2022-12-04T01:43:35.426Z,-0.56
2022-12-04T01:46:03.927Z,-0.51
2022-12-04T01:48:33.451Z,-0.48
2022-12-04T01:51:08.024Z,-0.51
2022-12-04T01:53:38.308Z,-0.51
2022-12-04T01:56:07.515Z,-0.55
2022-12-04T01:58:38.949Z,-0.53
2022-12-04T02:01:09.318Z,-0.52
2022-12-04T02:03:37.917Z,-0.52
2022-12-04T02:06:08.023Z,-0.52
2022-12-04T02:08:37.000Z,-0.49
2022-12-04T02:11:14.992Z,-0.48
2022-12-04T02:13:53.948Z,-0.52
2022-12-04T02:16:26.923Z,-0.50
2022-12-04T02:19:03.943Z,-0.52
2022-12-04T02:21:37.798Z,-0.53
2022-12-04T02:24:27.475Z,-0.55
2022-12-04T02:27:00.438Z,-0.53
2022-12-04T02:29:37.666Z,-0.52
2022-12-04T02:32:16.445Z,-0.47
2022-12-04T02:34:49.662Z,-0.51
2022-12-04T02:37:20.621Z,-0.55
2022-12-04T02:39:55.716Z,-0.57
2022-12-04T02:42:32.737Z,-0.53
2022-12-04T02:45:07.342Z,-0.49
2022-12-04T02:47:37.376Z,-0.51
2022-12-04T02:50:08.100Z,-0.55
2022-12-04T02:52:39.107Z,-0.53
2022-12-04T02:55:12.097Z,-0.55
2022-12-04T02:57:44.319Z,-0.52
2022-12-04T03:00:15.022Z,-0.54
2022-12-04T03:02:49.583Z,-0.53
2022-12-04T03:05:21.468Z,-0.52
2022-12-04T03:07:53.699Z,-0.50
2022-12-04T03:10:26.171Z,-0.50
2022-12-04T03:12:57.419Z,-0.55
2022-12-04T03:15:31.137Z,-0.56
2022-12-04T03:18:03.063Z,-0.58
2022-12-04T03:20:34.019Z,-0.51
2022-12-04T03:23:07.934Z,-0.51
2022-12-04T03:25:40.941Z,-0.53
2022-12-04T03:28:17.038Z,-0.51
2022-12-04T03:30:53.970Z,-0.51
2022-12-04T03:33:29.572Z,-0.50
2022-12-04T03:36:04.744Z,-0.48
2022-12-04T03:38:39.141Z,-0.48
2022-12-04T03:41:15.209Z,-0.49
2022-12-04T03:43:50.093Z,-0.44
2022-12-04T03:46:25.649Z,-0.49
2022-12-04T03:48:56.902Z,-0.50
2022-12-04T03:51:30.799Z,-0.49
2022-12-04T03:54:04.939Z,-0.45
2022-12-04T03:56:36.154Z,-0.47
2022-12-04T03:59:09.920Z,-0.45
2022-12-04T04:01:43.174Z,-0.45
2022-12-04T04:04:14.662Z,-0.44
2022-12-04T04:06:48.623Z,-0.43
2022-12-04T04:09:20.269Z,-0.40
2022-12-04T04:11:53.939Z,-0.40
2022-12-04T04:14:42.998Z,-0.40
2022-12-04T04:17:38.404Z,-0.40
2022-12-04T04:20:28.904Z,-0.40
2022-12-04T04:23:17.760Z,-0.41
2022-12-04T04:25:47.753Z,-0.39
2022-12-04T04:28:30.790Z,-0.40
2022-12-04T04:31:08.102Z,-0.41
2022-12-04T04:33:44.045Z,-0.42
2022-12-04T04:36:19.390Z,-0.37
2022-12-04T04:38:54.509Z,-0.27
2022-12-04T04:41:26.276Z,-0.30
2022-12-04T04:44:00.277Z,-0.29
2022-12-04T04:46:33.096Z,-0.27
2022-12-04T04:49:05.632Z,-0.32
2022-12-04T04:51:36.038Z,-0.35
2022-12-04T04:54:06.000Z,-0.34
2022-12-04T04:56:34.536Z,-0.32
2022-12-04T04:59:02.157Z,-0.35
2022-12-04T05:01:30.139Z,-0.35
2022-12-04T05:03:57.769Z,-0.38
2022-12-04T05:06:26.768Z,-0.32
2022-12-04T05:08:54.435Z,-0.37
2022-12-04T05:11:22.094Z,-0.37
2022-12-04T05:13:49.784Z,-0.35
2022-12-04T05:16:18.206Z,-0.28
2022-12-04T05:19:06.522Z,-0.28
2022-12-04T05:21:34.992Z,-0.35
2022-12-04T05:24:02.685Z,-0.32
2022-12-04T05:26:30.361Z,-0.31
2022-12-04T05:28:58.003Z,-0.30
2022-12-04T05:31:25.716Z,-0.28
2022-12-04T05:33:53.419Z,-0.29
2022-12-04T05:36:21.043Z,-0.30
2022-12-04T05:38:50.053Z,-0.26
2022-12-04T05:41:17.723Z,-0.30
2022-12-04T05:43:45.415Z,-0.24
2022-12-04T05:46:13.130Z,-0.29
2022-12-04T05:48:40.803Z,-0.28
2022-12-04T05:51:09.480Z,-0.28
2022-12-04T05:53:37.347Z,-0.27
2022-12-04T05:56:07.759Z,-0.21
2022-12-04T05:58:35.457Z,-0.23
2022-12-04T06:01:09.306Z,-0.20
2022-12-04T06:03:36.979Z,-0.21
2022-12-04T06:06:05.512Z,-0.17
2022-12-04T06:08:33.139Z,-0.20
2022-12-04T06:11:00.735Z,-0.20
2022-12-04T06:13:29.778Z,-0.20
2022-12-04T06:15:57.756Z,-0.19
2022-12-04T06:18:25.425Z,-0.18
2022-12-04T06:20:53.224Z,-0.13
2022-12-04T06:23:20.931Z,-0.16
2022-12-04T06:25:48.619Z,-0.12
2022-12-04T06:28:16.275Z,-0.11
2022-12-04T06:30:45.294Z,-0.05
2022-12-04T06:33:12.925Z,-0.11
2022-12-04T06:35:40.561Z,-0.11
2022-12-04T06:38:08.310Z,-0.14
2022-12-04T06:40:35.965Z,-0.12
2022-12-04T06:43:03.667Z,-0.14
2022-12-04T06:45:31.378Z,-0.08
2022-12-04T06:48:00.379Z,-0.06
2022-12-04T06:50:28.025Z,-0.03
2022-12-04T06:52:55.643Z,-0.03
2022-12-04T06:55:23.322Z,-0.07
2022-12-04T06:57:50.999Z,-0.08
2022-12-04T07:00:19.106Z,-0.05
2022-12-04T07:02:46.794Z,-0.03
2022-12-04T07:05:16.002Z,-0.03
2022-12-04T07:07:43.704Z,-0.02
2022-12-04T07:10:12.104Z,-0.05
2022-12-04T07:12:39.710Z,-0.06
2022-12-04T07:15:08.173Z,-0.06
2022-12-04T07:17:35.793Z,-0.07
2022-12-04T07:20:11.242Z,-0.05
2022-12-04T07:22:40.231Z,-0.03
2022-12-04T07:25:08.215Z,0.00
2022-12-04T07:27:35.939Z,-0.01
2022-12-04T07:30:03.864Z,-0.03
2022-12-04T07:32:31.572Z,-0.03
2022-12-04T07:34:59.264Z,-0.03
2022-12-04T07:37:26.900Z,0.02
2022-12-04T07:39:56.134Z,-0.04
2022-12-04T07:42:24.590Z,-0.04
2022-12-04T07:44:52.260Z,-0.04
2022-12-04T07:47:19.912Z,-0.03
2022-12-04T07:49:47.535Z,0.02
2022-12-04T07:52:15.159Z,0.02
2022-12-04T07:54:42.764Z,0.00
2022-12-04T07:57:11.747Z,0.03
2022-12-04T07:59:39.696Z,0.04
2022-12-04T08:02:07.869Z,0.04
2022-12-04T08:04:35.553Z,0.04
2022-12-04T08:07:03.175Z,0.06
2022-12-04T08:09:30.992Z,-0.01
2022-12-04T08:11:58.633Z,0.00
2022-12-04T08:14:27.639Z,0.04
2022-12-04T08:16:55.330Z,0.04
2022-12-04T08:19:23.032Z,0.04
2022-12-04T08:21:50.863Z,0.08
2022-12-04T08:24:18.530Z,0.05
2022-12-04T08:26:46.195Z,0.05
2022-12-04T08:29:13.911Z,0.09
2022-12-04T08:31:42.927Z,0.08
2022-12-04T08:34:10.614Z,0.08
2022-12-04T08:36:38.268Z,0.07
2022-12-04T08:39:06.061Z,0.08
2022-12-04T08:41:33.731Z,0.05
2022-12-04T08:44:01.554Z,0.07
2022-12-04T08:46:29.609Z,0.08
2022-12-04T08:48:59.407Z,0.09
2022-12-04T08:51:29.481Z,0.07
2022-12-04T08:53:59.196Z,0.11
2022-12-04T08:56:28.284Z,0.12
2022-12-04T08:58:56.692Z,0.08
2022-12-04T09:01:25.772Z,0.14
2022-12-04T09:03:54.162Z,0.14
2022-12-04T09:06:23.947Z,0.17
2022-12-04T09:08:54.213Z,0.16
2022-12-04T09:11:23.866Z,0.14
2022-12-04T09:13:53.125Z,0.19
2022-12-04T09:16:23.144Z,0.27
2022-12-04T09:18:51.250Z,0.23
2022-12-04T09:21:21.096Z,0.20
2022-12-04T09:23:50.210Z,0.19
2022-12-04T09:26:21.570Z,0.22
2022-12-04T09:28:50.496Z,0.25
2022-12-04T09:31:18.964Z,0.26
2022-12-04T09:33:47.168Z,0.22
2022-12-04T09:36:16.858Z,0.27
2022-12-04T09:38:45.463Z,0.32
2022-12-04T09:41:49.156Z,0.35
2022-12-04T09:44:22.670Z,0.31
2022-12-04T09:46:53.750Z,0.34
2022-12-04T09:49:26.535Z,0.33
2022-12-04T09:51:58.132Z,0.32
2022-12-04T09:54:29.470Z,0.36
2022-12-04T09:57:02.345Z,0.35
2022-12-04T09:59:33.621Z,0.36
2022-12-04T10:02:08.446Z,0.34
2022-12-04T10:04:36.161Z,0.34
2022-12-04T10:07:08.571Z,0.36
2022-12-04T10:09:43.308Z,0.43
2022-12-04T10:12:20.404Z,0.45
2022-12-04T10:15:02.401Z,0.40
2022-12-04T10:17:46.315Z,0.40
2022-12-04T10:20:27.875Z,0.41
2022-12-04T10:23:08.101Z,0.41
2022-12-04T10:25:40.550Z,0.47
2022-12-04T10:28:26.369Z,0.48
2022-12-04T10:30:59.210Z,0.51
2022-12-04T10:33:34.963Z,0.52
2022-12-04T10:36:03.953Z,0.52
2022-12-04T10:38:40.149Z,0.52
2022-12-04T10:41:16.359Z,0.54
2022-12-04T10:43:46.067Z,0.52
2022-12-04T10:46:19.723Z,0.55
2022-12-04T10:48:50.102Z,0.54
2022-12-04T10:51:18.702Z,0.55
2022-12-04T10:53:49.334Z,0.54
2022-12-04T10:56:19.594Z,0.55
2022-12-04T10:58:57.894Z,0.56
2022-12-04T11:01:28.811Z,0.55
2022-12-04T11:04:03.239Z,0.56
2022-12-04T11:06:31.527Z,0.59
2022-12-04T11:09:00.700Z,0.58
2022-12-04T11:11:31.257Z,0.57
2022-12-04T11:14:04.147Z,0.60
2022-12-04T11:16:38.546Z,0.59
2022-12-04T11:19:21.519Z,0.65
2022-12-04T11:21:49.724Z,0.72
2022-12-04T11:24:23.655Z,0.68
2022-12-04T11:26:52.487Z,0.70
2022-12-04T11:29:24.510Z,0.79
2022-12-04T11:31:58.571Z,0.73
2022-12-04T11:34:35.804Z,0.77
2022-12-04T11:37:04.122Z,0.75
2022-12-04T11:39:36.255Z,0.71
2022-12-04T11:42:06.870Z,0.70
2022-12-04T11:44:36.914Z,0.70
2022-12-04T11:47:17.089Z,0.73
2022-12-04T11:49:44.911Z,0.76
2022-12-04T11:52:30.766Z,0.80
2022-12-04T11:55:03.265Z,0.82
2022-12-04T11:57:38.049Z,0.79
2022-12-04T12:00:14.787Z,0.80
2022-12-04T12:02:57.459Z,0.83
2022-12-04T12:05:50.619Z,0.82
2022-12-04T12:08:26.499Z,0.79
2022-12-04T12:11:02.202Z,0.82
2022-12-04T12:13:41.659Z,0.84
2022-12-04T12:16:19.111Z,0.79
2022-12-04T12:19:04.828Z,0.78
2022-12-04T12:21:40.530Z,0.79
2022-12-04T12:24:27.650Z,0.80
2022-12-04T12:27:07.452Z,0.87
2022-12-04T12:29:48.619Z,0.85
2022-12-04T12:32:32.869Z,0.82
2022-12-04T12:35:02.572Z,0.80
2022-12-04T12:37:39.212Z,0.77
2022-12-04T12:40:16.164Z,0.78
2022-12-04T12:42:56.684Z,0.82
2022-12-04T12:45:31.142Z,0.81
2022-12-04T12:48:05.358Z,0.83
2022-12-04T12:50:43.462Z,0.84
2022-12-04T12:53:16.735Z,0.85
2022-12-04T12:55:49.119Z,0.92
2022-12-04T12:58:25.834Z,0.90
2022-12-04T13:01:01.016Z,0.90
2022-12-04T13:03:38.356Z,0.86
2022-12-04T13:06:13.099Z,0.87
2022-12-04T13:08:49.293Z,0.88
2022-12-04T13:11:20.888Z,0.89
2022-12-04T13:13:52.967Z,0.89
2022-12-04T13:16:24.385Z,0.90
2022-12-04T13:19:07.560Z,0.89
2022-12-04T13:21:41.390Z,0.91
2022-12-04T13:24:51.264Z,0.91
2022-12-04T13:27:31.348Z,0.94
2022-12-04T13:30:09.866Z,0.99
2022-12-04T13:33:04.223Z,1.02
2022-12-04T13:35:51.700Z,1.01
2022-12-04T13:38:30.476Z,0.99
2022-12-04T13:41:01.147Z,0.98
2022-12-04T13:43:46.942Z,1.03
2022-12-04T13:46:29.202Z,0.98
2022-12-04T13:49:09.076Z,0.95
2022-12-04T13:51:39.063Z,0.96
2022-12-04T13:54:29.466Z,0.97
2022-12-04T13:56:59.036Z,1.02
2022-12-04T13:59:38.881Z,1.05
2022-12-04T14:02:25.783Z,1.04
2022-12-04T14:04:57.285Z,1.08
2022-12-04T14:07:29.638Z,1.10
2022-12-04T14:10:01.838Z,1.06
2022-12-04T14:12:32.794Z,1.08
2022-12-04T14:15:02.935Z,1.10
2022-12-04T14:17:34.502Z,1.05
2022-12-04T14:20:08.117Z,1.10
2022-12-04T14:22:44.463Z,1.05
2022-12-04T14:25:36.426Z,1.05
2022-12-04T14:28:23.917Z,1.06
2022-12-04T14:31:04.725Z,1.07
2022-12-04T14:33:36.120Z,1.04
2022-12-04T14:36:08.043Z,1.06
2022-12-04T14:38:36.178Z,1.06
2022-12-04T14:41:05.432Z,1.07
2022-12-04T14:43:39.048Z,1.04
2022-12-04T14:46:14.759Z,1.08
2022-12-04T14:48:54.359Z,1.09
2022-12-04T14:51:29.251Z,1.07
2022-12-04T14:54:05.335Z,1.08
2022-12-04T14:56:49.859Z,1.11
2022-12-04T14:59:19.567Z,1.12
2022-12-04T15:01:49.338Z,1.12
2022-12-04T15:04:24.155Z,1.08
2022-12-04T15:06:58.313Z,1.06
2022-12-04T15:09:46.288Z,1.15
2022-12-04T15:12:34.460Z,1.14
2022-12-04T15:15:09.654Z,1.09
2022-12-04T15:17:37.278Z,1.11
2022-12-04T15:20:15.495Z,1.11
2022-12-04T15:22:43.369Z,1.10
2022-12-04T15:25:18.554Z,1.12
2022-12-04T15:27:49.887Z,1.13
2022-12-04T15:30:20.281Z,1.17
2022-12-04T15:32:50.116Z,1.13
2022-12-04T15:35:23.863Z,1.12
2022-12-04T15:37:51.920Z,1.17
2022-12-04T15:40:23.101Z,1.17
2022-12-04T15:42:52.744Z,1.18
2022-12-04T15:45:35.346Z,1.20
2022-12-04T15:48:03.038Z,1.20
2022-12-04T15:50:31.806Z,1.19
2022-12-04T15:53:04.275Z,1.20
2022-12-04T15:55:34.337Z,1.21
2022-12-04T15:58:06.044Z,1.21
2022-12-04T16:00:37.565Z,1.25
2022-12-04T16:03:20.611Z,1.24
2022-12-04T16:05:48.622Z,1.25
2022-12-04T16:08:30.073Z,1.27
2022-12-04T16:11:00.202Z,1.29
2022-12-04T16:13:32.066Z,1.32
2022-12-04T16:16:01.135Z,1.27
2022-12-04T16:18:29.714Z,1.26
2022-12-04T16:20:57.571Z,1.29
2022-12-04T16:23:26.925Z,1.36
2022-12-04T16:25:54.727Z,1.33
2022-12-04T16:28:22.371Z,1.30
2022-12-04T16:30:53.316Z,1.32
2022-12-04T16:33:21.022Z,1.30
2022-12-04T16:35:48.696Z,1.27
2022-12-04T16:38:17.865Z,1.29
2022-12-04T16:40:46.539Z,1.29
2022-12-04T16:43:16.580Z,1.31
2022-12-04T16:45:47.319Z,1.32
2022-12-04T16:48:16.517Z,1.30
2022-12-04T16:50:45.067Z,1.32
2022-12-04T16:53:16.834Z,1.41
2022-12-04T16:55:46.973Z,1.36
2022-12-04T16:58:15.090Z,1.36
2022-12-04T17:00:44.387Z,1.33
2022-12-04T17:03:24.928Z,1.34
2022-12-04T17:05:52.381Z,1.33
2022-12-04T17:08:20.135Z,1.32
2022-12-04T17:10:48.030Z,1.40
2022-12-04T17:13:18.475Z,1.39
2022-12-04T17:15:46.043Z,1.39
2022-12-04T17:18:20.575Z,1.38
2022-12-04T17:20:50.363Z,1.36
2022-12-04T17:23:18.252Z,1.43
2022-12-04T17:25:45.944Z,1.46
2022-12-04T17:28:14.902Z,1.39
2022-12-04T17:30:45.894Z,1.39
2022-12-04T17:33:13.563Z,1.50
2022-12-04T17:35:43.221Z,1.43
2022-12-04T17:38:12.469Z,1.41
2022-12-04T17:40:40.114Z,1.43
2022-12-04T17:43:07.753Z,1.50
2022-12-04T17:45:35.422Z,1.45
2022-12-04T17:48:03.105Z,1.46
2022-12-04T17:50:30.787Z,1.44
2022-12-04T17:52:58.481Z,1.45
2022-12-04T17:55:27.518Z,1.50
2022-12-04T17:57:55.238Z,1.49
2022-12-04T18:00:23.563Z,1.50
2022-12-04T18:02:53.404Z,1.49
2022-12-04T18:05:21.832Z,1.51
2022-12-04T18:07:49.546Z,1.50
2022-12-04T18:10:17.262Z,1.50
2022-12-04T18:12:46.297Z,1.54
2022-12-04T18:15:13.910Z,1.52
2022-12-04T18:17:41.565Z,1.50
2022-12-04T18:20:10.380Z,1.49
2022-12-04T18:22:38.483Z,1.49
2022-12-04T18:25:07.395Z,1.47
2022-12-04T18:27:40.388Z,1.47
2022-12-04T18:30:12.087Z,1.50
2022-12-04T18:32:39.782Z,1.50
2022-12-04T18:35:07.946Z,1.52
2022-12-04T18:37:35.654Z,1.55
2022-12-04T18:40:06.585Z,1.55
2022-12-04T18:42:35.169Z,1.54
2022-12-04T18:45:02.850Z,1.55
2022-12-04T18:47:31.878Z,1.55
2022-12-04T18:49:59.845Z,1.60
2022-12-04T18:52:27.790Z,1.70
2022-12-04T18:54:55.403Z,1.62
2022-12-04T18:57:23.065Z,1.62
2022-12-04T18:59:50.775Z,1.61
2022-12-04T19:02:18.593Z,1.68
2022-12-04T19:04:47.694Z,1.65
2022-12-04T19:07:15.315Z,1.67
2022-12-04T19:12:30.683Z,1.69
2022-12-04T19:14:58.503Z,1.68
2022-12-04T19:17:26.211Z,1.64
2022-12-04T19:19:55.569Z,1.65
2022-12-04T19:22:23.621Z,1.65
2022-12-04T19:24:51.326Z,1.67
2022-12-04T19:27:18.996Z,1.70
2022-12-04T19:29:49.055Z,1.69
2022-12-04T19:32:16.766Z,1.70
2022-12-04T19:34:44.746Z,1.73
2022-12-04T19:37:13.865Z,1.70
2022-12-04T19:39:41.758Z,1.71
2022-12-04T19:42:09.804Z,1.72
2022-12-04T19:44:53.268Z,1.72
2022-12-04T19:47:21.242Z,1.69
2022-12-04T19:49:49.476Z,1.74
2022-12-04T19:52:19.294Z,1.71
2022-12-04T19:54:47.274Z,1.74
2022-12-04T19:57:15.731Z,1.74
2022-12-04T19:59:57.397Z,1.75
2022-12-04T20:02:25.638Z,1.74
2022-12-04T20:04:53.825Z,1.81
2022-12-04T20:07:23.485Z,1.79
2022-12-04T20:09:52.769Z,1.78
2022-12-04T20:12:21.129Z,1.78
2022-12-04T20:14:49.245Z,1.77
2022-12-04T20:17:17.229Z,1.88
2022-12-04T20:19:45.208Z,1.82
2022-12-04T20:22:13.013Z,1.83
2022-12-04T20:24:42.968Z,1.84
2022-12-04T20:27:11.052Z,1.81
2022-12-04T20:29:39.162Z,1.80
2022-12-04T20:32:07.082Z,1.84
2022-12-04T20:34:38.792Z,1.83
2022-12-04T20:37:11.215Z,1.85
2022-12-04T20:39:39.083Z,1.82
2022-12-04T20:42:08.209Z,1.82
2022-12-04T20:44:36.121Z,1.80
2022-12-04T20:47:04.022Z,1.80
2022-12-04T20:49:31.822Z,1.82
2022-12-04T20:51:59.692Z,1.82
2022-12-04T20:54:27.594Z,1.81
2022-12-04T20:56:56.359Z,1.80
2022-12-04T20:59:25.864Z,1.85
2022-12-04T21:01:54.645Z,1.79
2022-12-04T21:04:23.112Z,1.80
2022-12-04T21:06:50.974Z,1.80
2022-12-04T21:09:21.590Z,1.79
2022-12-04T21:11:51.087Z,1.78
2022-12-04T21:14:38.014Z,1.78
2022-12-04T21:17:09.541Z,1.78
2022-12-04T21:19:53.171Z,1.79
2022-12-04T21:22:21.061Z,1.80
2022-12-04T21:24:51.925Z,1.84
2022-12-04T21:27:21.366Z,1.88
2022-12-04T21:29:49.622Z,1.83
2022-12-04T21:32:20.548Z,1.79
2022-12-04T21:34:48.449Z,1.78
2022-12-04T21:37:16.521Z,1.82
2022-12-04T21:39:44.909Z,1.82
2022-12-04T21:42:29.935Z,1.80
2022-12-04T21:44:57.904Z,1.82
2022-12-04T21:47:27.504Z,1.81
2022-12-04T21:49:55.753Z,1.83
2022-12-04T21:52:23.978Z,1.81
2022-12-04T21:54:52.499Z,1.79
2022-12-04T21:57:21.107Z,1.86
2022-12-04T22:00:00.207Z,1.82
2022-12-04T22:02:30.214Z,1.82
2022-12-04T22:05:01.453Z,1.88
2022-12-04T22:07:31.395Z,1.84
2022-12-04T22:09:59.383Z,1.81
2022-12-04T22:12:48.533Z,1.85
2022-12-04T22:15:15.261Z,1.82
2022-12-04T22:17:44.425Z,1.81
2022-12-04T22:20:12.507Z,1.80
2022-12-04T22:22:40.293Z,1.80
2022-12-04T22:25:08.665Z,1.84
2022-12-04T22:27:36.548Z,1.80
2022-12-04T22:30:05.514Z,1.77
2022-12-04T22:32:33.792Z,1.79
2022-12-04T22:35:03.039Z,1.82
2022-12-04T22:37:30.823Z,1.82
2022-12-04T22:39:58.998Z,1.83
2022-12-04T22:42:31.630Z,1.81
2022-12-04T22:44:59.278Z,1.83
2022-12-04T22:47:26.890Z,1.84
2022-12-04T22:49:54.704Z,1.82
2022-12-04T22:52:23.814Z,1.78
2022-12-04T22:54:51.744Z,1.80
2022-12-04T22:57:20.036Z,1.85
2022-12-04T22:59:47.758Z,1.83
2022-12-04T23:02:15.466Z,1.86
2022-12-04T23:04:43.824Z,1.91
2022-12-04T23:07:11.733Z,1.93
2022-12-04T23:09:40.893Z,1.84
2022-12-04T23:12:08.727Z,1.85
2022-12-04T23:14:36.901Z,1.86
2022-12-04T23:17:04.777Z,1.84
2022-12-04T23:19:32.594Z,1.85
2022-12-04T23:22:00.249Z,1.95
2022-12-04T23:24:27.884Z,1.89
2022-12-04T23:26:56.864Z,1.87
2022-12-04T23:32:12.167Z,1.85
2022-12-04T23:34:39.827Z,1.86
2022-12-04T23:37:07.430Z,1.86
2022-12-04T23:39:35.113Z,1.86
2022-12-04T23:42:04.234Z,1.86
2022-12-04T23:44:31.899Z,1.89
2022-12-04T23:46:59.669Z,1.89
2022-12-04T23:49:27.444Z,1.93
2022-12-04T23:51:55.248Z,1.90
2022-12-04T23:54:22.944Z,1.88
2022-12-04T23:56:50.604Z,1.92
2022-12-04T23:59:21.258Z,1.91
